Time;durP1;ratioP1;P1;durP2;ratioP2;P2;SDS_P1;SDS_P2;PMS_P1;PMS_P2;Temp;Humidity;BMP_temperature;BMP_pressure;BME280_temperature;BME280_humidity;BME280_pressure;Samples;Min_cycle;Max_cycle;Signal;HPM_P1;HPM_P2
2022/08/27 00:01:11;;;;;;;;;;;17.50;99.90;;;;;;5008228;28;19917;-79
2022/08/27 00:03:37;;;;;;;;;;;17.50;99.90;;;;;;5014150;28;19914;-78
2022/08/27 00:06:03;;;;;;;;;;;17.50;99.90;;;;;;5015806;28;19917;-77
2022/08/27 00:08:29;;;;;;;;;;;17.50;99.90;;;;;;5012303;28;19920;-76
2022/08/27 00:10:56;;;;;;;;;;;17.50;99.90;;;;;;5006957;28;19921;-77
2022/08/27 00:13:21;;;;;;;;;;;17.50;99.90;;;;;;5011185;28;19921;-79
2022/08/27 00:15:47;;;;;;;;;;;17.50;99.90;;;;;;5009377;28;19917;-77
2022/08/27 00:18:13;;;;;;;;;;;17.50;99.90;;;;;;5005030;28;19925;-79
2022/08/27 00:20:38;;;;;;;;;;;17.40;99.90;;;;;;4998053;28;19918;-79
2022/08/27 00:23:04;;;;;;;;;;;17.40;99.90;;;;;;5026320;28;19961;-79
2022/08/27 00:25:30;;;;;;;;;;;17.40;99.90;;;;;;5000553;28;19922;-78
2022/08/27 00:27:55;;;;;;;;;;;17.40;99.90;;;;;;4999792;28;20458;-76
2022/08/27 00:30:22;;;;;;;;;;;17.40;99.90;;;;;;5007553;28;19932;-79
2022/08/27 00:32:47;;;;;;;;;;;17.40;99.90;;;;;;5014551;28;20565;-79
2022/08/27 00:35:14;;;;;;;;;;;17.40;99.90;;;;;;5015355;28;19956;-79
2022/08/27 00:37:40;;;;;;;;;;;17.30;99.90;;;;;;5025331;28;19972;-79
2022/08/27 00:40:07;;;;;;;;;;;17.40;99.90;;;;;;5023517;28;20173;-79
2022/08/27 00:42:33;;;;;;;;;;;17.40;99.90;;;;;;5019844;28;19925;-79
2022/08/27 00:44:58;;;;;;;;;;;17.30;99.90;;;;;;5011977;28;19925;-78
2022/08/27 00:47:26;;;;;;;;;;;17.40;99.90;;;;;;5017416;28;19913;-78
2022/08/27 00:49:54;;;;;;;;;;;17.30;99.90;;;;;;5006723;28;20398;-77
2022/08/27 00:52:27;;;;;;;;;;;17.30;99.90;;;;;;4998820;28;19929;-79
2022/08/27 00:54:55;;;;;;;;;;;17.30;99.90;;;;;;5000780;28;19952;-79
2022/08/27 00:57:21;;;;;;;;;;;17.30;99.90;;;;;;5009071;28;19909;-79
2022/08/27 00:59:47;;;;;;;;;;;17.30;99.90;;;;;;5002683;28;19928;-77
2022/08/27 01:02:18;;;;;;;;;;;17.30;99.90;;;;;;5006977;28;19917;-78
2022/08/27 01:04:47;;;;;;;;;;;17.30;99.90;;;;;;4997120;28;19921;-79
2022/08/27 01:07:13;;;;;;;;;;;17.30;99.90;;;;;;5003040;28;19910;-77
2022/08/27 01:09:40;;;;;;;;;;;17.30;99.90;;;;;;5012134;28;19917;-78
2022/08/27 01:12:06;;;;;;;;;;;17.30;99.90;;;;;;5010226;28;19917;-79
2022/08/27 01:14:32;;;;;;;;;;;17.30;99.90;;;;;;4997566;28;19926;-79
2022/08/27 01:16:59;;;;;;;;;;;17.30;99.90;;;;;;4995682;28;19920;-79
2022/08/27 01:19:30;;;;;;;;;;;17.30;99.90;;;;;;5007154;28;19921;-79
2022/08/27 01:22:04;;;;;;;;;;;17.30;99.90;;;;;;4997249;28;19921;-79
2022/08/27 01:24:30;;;;;;;;;;;17.30;99.90;;;;;;5006884;28;20300;-79
2022/08/27 01:26:56;;;;;;;;;;;17.30;99.90;;;;;;4999034;28;19909;-78
2022/08/27 01:29:22;;;;;;;;;;;17.30;99.90;;;;;;4997534;28;19921;-79
2022/08/27 01:31:48;;;;;;;;;;;17.30;99.90;;;;;;4996950;28;20376;-79
2022/08/27 01:34:14;;;;;;;;;;;17.30;99.90;;;;;;5002015;28;19968;-79
2022/08/27 01:36:40;;;;;;;;;;;17.30;99.90;;;;;;5010797;28;19941;-79
2022/08/27 01:39:05;;;;;;;;;;;17.30;99.90;;;;;;4986106;28;19922;-79
2022/08/27 01:41:31;;;;;;;;;;;17.30;99.90;;;;;;5012093;28;19922;-79
2022/08/27 01:43:57;;;;;;;;;;;17.30;99.90;;;;;;5002978;28;19918;-79
2022/08/27 01:46:23;;;;;;;;;;;17.30;99.90;;;;;;5006195;28;19922;-79
2022/08/27 01:48:49;;;;;;;;;;;17.30;99.90;;;;;;5006308;28;20433;-80
2022/08/27 01:51:15;;;;;;;;;;;17.20;99.90;;;;;;5000616;28;19956;-80
2022/08/27 01:53:41;;;;;;;;;;;17.20;99.90;;;;;;5013140;28;19936;-79
2022/08/27 01:56:07;;;;;;;;;;;17.20;99.90;;;;;;5010607;28;19925;-79
2022/08/27 01:58:32;;;;;;;;;;;17.20;99.90;;;;;;5006166;28;19945;-79
2022/08/27 02:01:01;;;;;;;;;;;17.20;99.90;;;;;;5021258;28;19925;-80
2022/08/27 02:03:27;;;;;;;;;;;17.30;99.90;;;;;;5023954;28;20006;-79
2022/08/27 02:05:53;;;;;;;;;;;17.30;99.90;;;;;;5011014;28;19925;-79
2022/08/27 02:08:19;;;;;;;;;;;17.20;99.90;;;;;;4990476;28;19932;-79
2022/08/27 02:10:45;;;;;;;;;;;17.20;99.90;;;;;;5019099;28;19917;-77
2022/08/27 02:13:12;;;;;;;;;;;17.30;99.90;;;;;;5007553;28;20382;-78
2022/08/27 02:15:38;;;;;;;;;;;17.30;99.90;;;;;;5004286;28;19922;-80
2022/08/27 02:18:05;;;;;;;;;;;17.30;99.90;;;;;;5006733;28;19964;-80
2022/08/27 02:20:31;;;;;;;;;;;17.30;99.90;;;;;;5004735;28;19941;-78
2022/08/27 02:22:57;;;;;;;;;;;17.20;99.90;;;;;;5013220;28;19929;-79
2022/08/27 02:25:22;;;;;;;;;;;17.30;99.90;;;;;;4999112;28;19921;-80
2022/08/27 02:27:49;;;;;;;;;;;17.30;99.90;;;;;;5013607;28;20005;-80
2022/08/27 02:30:16;;;;;;;;;;;17.20;99.90;;;;;;5002871;28;19918;-80
2022/08/27 02:32:44;;;;;;;;;;;17.30;99.90;;;;;;5015785;28;19928;-80
2022/08/27 02:35:09;;;;;;;;;;;17.30;99.90;;;;;;5013609;28;20382;-78
2022/08/27 02:37:36;;;;;;;;;;;17.30;99.90;;;;;;4997683;28;19960;-78
2022/08/27 02:40:03;;;;;;;;;;;17.20;99.90;;;;;;5019132;28;19945;-79
2022/08/27 02:42:29;;;;;;;;;;;17.30;99.90;;;;;;5022500;28;19945;-79
2022/08/27 02:44:54;;;;;;;;;;;17.30;99.90;;;;;;5037012;28;19928;-79
2022/08/27 02:47:20;;;;;;;;;;;17.30;99.90;;;;;;5022150;28;19918;-80
2022/08/27 02:49:46;;;;;;;;;;;17.30;99.90;;;;;;5009223;28;19917;-79
2022/08/27 02:52:12;;;;;;;;;;;17.30;99.90;;;;;;4999583;28;20328;-79
2022/08/27 02:54:37;;;;;;;;;;;17.30;99.90;;;;;;5008882;28;19925;-79
2022/08/27 02:57:03;;;;;;;;;;;17.20;99.90;;;;;;5018678;28;19924;-79
2022/08/27 02:59:29;;;;;;;;;;;17.20;99.90;;;;;;5016405;28;19924;-79
2022/08/27 03:01:55;;;;;;;;;;;17.20;99.90;;;;;;4993558;28;19917;-79
2022/08/27 03:04:21;;;;;;;;;;;17.20;99.90;;;;;;5021234;28;19913;-80
2022/08/27 03:06:47;;;;;;;;;;;17.20;99.90;;;;;;5024140;28;19957;-79
2022/08/27 03:09:13;;;;;;;;;;;17.20;99.90;;;;;;5015161;28;19924;-79
2022/08/27 03:11:38;;;;;;;;;;;17.20;99.90;;;;;;5007052;28;19914;-78
2022/08/27 03:14:04;;;;;;;;;;;17.20;99.90;;;;;;5016706;28;20196;-79
2022/08/27 03:16:33;;;;;;;;;;;17.20;99.90;;;;;;5013430;28;19924;-79
2022/08/27 03:18:58;;;;;;;;;;;17.20;99.90;;;;;;5013653;28;20329;-79
2022/08/27 03:21:24;;;;;;;;;;;17.20;99.90;;;;;;5023082;28;19921;-79
2022/08/27 03:23:50;;;;;;;;;;;17.20;99.90;;;;;;5023121;28;19922;-79
2022/08/27 03:26:16;;;;;;;;;;;17.20;99.90;;;;;;5030981;28;19956;-79
2022/08/27 03:28:42;;;;;;;;;;;17.20;99.90;;;;;;5022473;28;19921;-79
2022/08/27 03:31:12;;;;;;;;;;;17.20;99.90;;;;;;5010416;28;19914;-79
2022/08/27 03:33:38;;;;;;;;;;;17.20;99.90;;;;;;5015405;28;19917;-79
2022/08/27 03:36:06;;;;;;;;;;;17.20;99.90;;;;;;5025625;28;20535;-79
2022/08/27 03:38:32;;;;;;;;;;;17.20;99.90;;;;;;5026618;28;20370;-79
2022/08/27 03:40:58;;;;;;;;;;;17.20;99.90;;;;;;5024660;28;19921;-79
2022/08/27 03:43:23;;;;;;;;;;;17.20;99.90;;;;;;5012105;28;19964;-79
2022/08/27 03:45:51;;;;;;;;;;;17.20;99.90;;;;;;5000410;28;19918;-79
2022/08/27 03:48:17;;;;;;;;;;;17.20;99.90;;;;;;5004735;28;19920;-79
2022/08/27 03:50:45;;;;;;;;;;;17.20;99.90;;;;;;5020752;28;19979;-79
2022/08/27 03:53:12;;;;;;;;;;;17.20;99.90;;;;;;5009776;28;19914;-80
2022/08/27 03:55:38;;;;;;;;;;;17.20;99.90;;;;;;5011692;28;20020;-80
2022/08/27 03:58:03;;;;;;;;;;;17.20;99.90;;;;;;5010152;28;20373;-80
2022/08/27 04:00:29;;;;;;;;;;;17.20;99.90;;;;;;5015060;28;19927;-78
2022/08/27 04:02:55;;;;;;;;;;;17.20;99.90;;;;;;5018547;28;19918;-79
2022/08/27 04:05:21;;;;;;;;;;;17.30;99.90;;;;;;5023116;28;19917;-80
2022/08/27 04:07:47;;;;;;;;;;;17.20;99.90;;;;;;5014646;28;19913;-80
2022/08/27 04:10:14;;;;;;;;;;;17.20;99.90;;;;;;5015811;28;19992;-79
2022/08/27 04:12:40;;;;;;;;;;;17.30;99.90;;;;;;5003660;28;19918;-80
2022/08/27 04:15:07;;;;;;;;;;;17.20;99.90;;;;;;5001329;28;20001;-79
2022/08/27 04:17:33;;;;;;;;;;;17.20;99.90;;;;;;5002700;28;19941;-80
2022/08/27 04:19:59;;;;;;;;;;;17.20;99.90;;;;;;5018595;28;20473;-79
2022/08/27 04:22:25;;;;;;;;;;;17.20;99.90;;;;;;5015232;28;19918;-79
2022/08/27 04:24:50;;;;;;;;;;;17.20;99.90;;;;;;5006231;28;22258;-79
2022/08/27 04:27:17;;;;;;;;;;;17.20;99.90;;;;;;5003196;28;19949;-80
2022/08/27 04:29:43;;;;;;;;;;;17.30;99.90;;;;;;5011319;28;19918;-79
2022/08/27 04:32:09;;;;;;;;;;;17.20;99.90;;;;;;5011141;28;20020;-79
2022/08/27 04:34:35;;;;;;;;;;;17.20;99.90;;;;;;5012852;28;19913;-79
2022/08/27 04:37:01;;;;;;;;;;;17.30;99.90;;;;;;4993413;28;19918;-78
2022/08/27 04:39:28;;;;;;;;;;;17.30;99.90;;;;;;5008180;28;19949;-78
2022/08/27 04:41:58;;;;;;;;;;;17.20;99.90;;;;;;5020689;28;19961;-78
2022/08/27 04:44:28;;;;;;;;;;;17.20;99.90;;;;;;5004971;28;19973;-78
2022/08/27 04:46:55;;;;;;;;;;;17.20;99.90;;;;;;5005076;28;19928;-78
2022/08/27 04:49:20;;;;;;;;;;;17.30;99.90;;;;;;4986596;28;20052;-79
2022/08/27 04:51:46;;;;;;;;;;;17.30;99.90;;;;;;5011826;28;19987;-78
2022/08/27 04:54:12;;;;;;;;;;;17.30;99.90;;;;;;5010088;28;19991;-78
2022/08/27 04:56:38;;;;;;;;;;;17.30;99.90;;;;;;5012459;28;19917;-79
2022/08/27 04:59:04;;;;;;;;;;;17.30;99.90;;;;;;5012166;28;20495;-79
2022/08/27 05:01:30;;;;;;;;;;;17.30;99.90;;;;;;5004648;28;20066;-77
2022/08/27 05:03:57;;;;;;;;;;;17.40;99.90;;;;;;5018870;28;19925;-79
2022/08/27 05:06:23;;;;;;;;;;;17.40;99.90;;;;;;5015599;28;19943;-79
2022/08/27 05:08:49;;;;;;;;;;;17.40;99.90;;;;;;5009520;28;20449;-79
2022/08/27 05:11:16;;;;;;;;;;;17.40;99.90;;;;;;5011348;28;20400;-79
2022/08/27 05:13:43;;;;;;;;;;;17.40;99.90;;;;;;5009686;28;19945;-79
2022/08/27 05:16:10;;;;;;;;;;;17.40;99.90;;;;;;5006391;28;19913;-78
2022/08/27 05:18:36;;;;;;;;;;;17.30;99.90;;;;;;5007359;28;19944;-79
2022/08/27 05:21:02;;;;;;;;;;;17.40;99.90;;;;;;5012140;28;20429;-79
2022/08/27 05:23:28;;;;;;;;;;;17.40;99.90;;;;;;5007662;28;19944;-79
2022/08/27 05:25:54;;;;;;;;;;;17.40;99.90;;;;;;5012747;28;19921;-79
2022/08/27 05:28:20;;;;;;;;;;;17.40;99.90;;;;;;5007043;28;19913;-79
2022/08/27 05:30:48;;;;;;;;;;;17.40;99.90;;;;;;5009410;28;19968;-79
2022/08/27 05:33:14;;;;;;;;;;;17.40;99.90;;;;;;5013485;28;20423;-79
2022/08/27 05:35:41;;;;;;;;;;;17.40;99.90;;;;;;5012695;28;19962;-80
2022/08/27 05:38:06;;;;;;;;;;;17.40;99.90;;;;;;5013952;28;19913;-80
2022/08/27 06:31:42;;;;;;;;;;;17.60;99.90;;;;;;5006143;28;19933;-81
2022/08/27 06:34:09;;;;;;;;;;;17.70;99.90;;;;;;5012909;28;19921;-80
2022/08/27 06:36:36;;;;;;;;;;;17.70;99.90;;;;;;5000956;28;19925;-79
2022/08/27 06:39:02;;;;;;;;;;;17.70;99.90;;;;;;5011649;28;19920;-80
2022/08/27 06:41:28;;;;;;;;;;;17.70;99.90;;;;;;5013907;28;19913;-79
2022/08/27 06:43:55;;;;;;;;;;;17.80;99.90;;;;;;5016696;23;19929;-79
2022/08/27 06:46:22;;;;;;;;;;;17.90;99.90;;;;;;5004370;28;20389;-79
2022/08/27 06:48:50;;;;;;;;;;;17.80;99.90;;;;;;5018154;28;19921;-82
2022/08/27 06:51:17;;;;;;;;;;;17.90;99.90;;;;;;5010894;28;19945;-82
2022/08/27 06:53:43;;;;;;;;;;;17.90;99.90;;;;;;5001538;28;19953;-79
2022/08/27 06:56:10;;;;;;;;;;;17.90;99.90;;;;;;5000250;28;19909;-79
2022/08/27 06:58:35;;;;;;;;;;;18.00;99.90;;;;;;5008296;28;19960;-80
2022/08/27 07:01:01;;;;;;;;;;;18.00;99.90;;;;;;4988715;28;19972;-80
2022/08/27 07:03:27;;;;;;;;;;;18.00;99.90;;;;;;4989803;28;19940;-79
2022/08/27 07:05:53;;;;;;;;;;;18.10;99.90;;;;;;5009789;28;20297;-81
2022/08/27 07:08:18;;;;;;;;;;;18.10;99.90;;;;;;4998413;28;19925;-81
2022/08/27 07:10:44;;;;;;;;;;;18.10;99.90;;;;;;5011407;28;19921;-82
2022/08/27 07:13:11;;;;;;;;;;;18.10;99.90;;;;;;4992782;28;20444;-79
2022/08/27 07:15:37;;;;;;;;;;;18.10;99.90;;;;;;5010790;28;19925;-81
2022/08/27 07:18:03;;;;;;;;;;;18.20;99.90;;;;;;4994981;28;19913;-82
2022/08/27 07:20:28;;;;;;;;;;;18.20;99.90;;;;;;5009899;28;19918;-81
2022/08/27 07:22:58;;;;;;;;;;;18.20;99.90;;;;;;4987618;28;19918;-81
2022/08/27 07:25:25;;;;;;;;;;;18.30;99.90;;;;;;4977815;28;20004;-81
2022/08/27 07:27:50;;;;;;;;;;;18.40;99.90;;;;;;5010944;28;19964;-79
2022/08/27 07:30:16;;;;;;;;;;;18.40;99.90;;;;;;5011599;28;19917;-81
2022/08/27 07:32:43;;;;;;;;;;;18.40;99.90;;;;;;5006155;28;19924;-79
2022/08/27 07:35:09;;;;;;;;;;;18.50;99.90;;;;;;4993383;28;19913;-81
2022/08/27 07:37:35;;;;;;;;;;;18.60;99.90;;;;;;5006509;28;20356;-80
2022/08/27 07:40:02;;;;;;;;;;;18.60;99.90;;;;;;5009691;28;19975;-79
2022/08/27 07:45:12;;;;;;;;;;;18.70;99.90;;;;;;5009098;28;19976;-81
2022/08/27 07:47:38;;;;;;;;;;;18.80;99.90;;;;;;5007038;28;20297;-82
2022/08/27 07:50:04;;;;;;;;;;;18.80;99.90;;;;;;5010565;28;20142;-80
2022/08/27 07:52:29;;;;;;;;;;;19.00;99.90;;;;;;5009152;28;19924;-82
2022/08/27 07:54:55;;;;;;;;;;;19.00;99.90;;;;;;5007934;28;20444;-79
2022/08/27 07:57:21;;;;;;;;;;;19.10;99.90;;;;;;4989201;28;20457;-79
2022/08/27 07:59:47;;;;;;;;;;;19.20;99.90;;;;;;5008042;28;19944;-81
2022/08/27 08:02:14;;;;;;;;;;;19.40;99.90;;;;;;5005781;28;19965;-80
2022/08/27 08:04:39;;;;;;;;;;;19.50;99.90;;;;;;4993503;28;20440;-79
2022/08/27 08:07:12;;;;;;;;;;;19.60;99.90;;;;;;5004463;28;20009;-80
2022/08/27 08:09:38;;;;;;;;;;;19.70;99.90;;;;;;4994531;28;19914;-80
2022/08/27 08:12:04;;;;;;;;;;;19.80;99.90;;;;;;4994335;28;19971;-80
2022/08/27 08:14:31;;;;;;;;;;;19.80;99.90;;;;;;5022685;28;20358;-80
2022/08/27 08:17:03;;;;;;;;;;;19.80;99.90;;;;;;5015117;28;19945;-80
2022/08/27 08:19:28;;;;;;;;;;;19.90;99.90;;;;;;5012072;28;19914;-80
2022/08/27 08:21:54;;;;;;;;;;;19.90;99.90;;;;;;4994503;28;19924;-79
2022/08/27 08:24:20;;;;;;;;;;;20.00;99.90;;;;;;5017456;28;19917;-79
2022/08/27 08:26:46;;;;;;;;;;;20.00;99.90;;;;;;5011476;28;20004;-79
2022/08/27 08:29:12;;;;;;;;;;;20.00;99.90;;;;;;5003402;28;20029;-80
2022/08/27 08:31:41;;;;;;;;;;;20.10;99.90;;;;;;4994001;28;19917;-79
2022/08/27 08:34:08;;;;;;;;;;;20.10;99.90;;;;;;5002482;28;19921;-80
2022/08/27 08:36:33;;;;;;;;;;;20.00;99.90;;;;;;5009507;28;19925;-78
2022/08/27 08:38:59;;;;;;;;;;;19.90;99.90;;;;;;5006614;28;20076;-82
2022/08/27 08:41:47;;;;;;;;;;;19.80;99.90;;;;;;5001572;28;20296;-78
2022/08/27 08:44:16;;;;;;;;;;;19.80;99.90;;;;;;4989425;28;19922;-80
2022/08/27 08:46:47;;;;;;;;;;;19.70;99.90;;;;;;4991717;28;20354;-79
2022/08/27 08:49:20;;;;;;;;;;;19.70;99.90;;;;;;5015170;28;20396;-79
2022/08/27 08:51:47;;;;;;;;;;;19.70;99.90;;;;;;5006286;28;20417;-84
2022/08/27 08:54:14;;;;;;;;;;;19.80;99.90;;;;;;4990852;28;20290;-84
2022/08/27 08:56:59;;;;;;;;;;;19.80;99.90;;;;;;4989528;28;19945;-80
2022/08/27 08:59:28;;;;;;;;;;;19.80;99.90;;;;;;4998906;28;19914;-78
2022/08/27 09:01:54;;;;;;;;;;;19.70;99.90;;;;;;4989248;28;20417;-81
2022/08/27 09:04:21;;;;;;;;;;;19.80;99.90;;;;;;5006196;28;19914;-79
2022/08/27 09:06:47;;;;;;;;;;;19.80;99.90;;;;;;5008541;28;19921;-79
2022/08/27 09:09:12;;;;;;;;;;;19.80;99.90;;;;;;5009843;28;19968;-79
2022/08/27 09:11:42;;;;;;;;;;;19.80;99.90;;;;;;5008984;28;20421;-79
2022/08/27 09:14:13;;;;;;;;;;;19.80;99.90;;;;;;5008528;28;19936;-78
2022/08/27 09:16:39;;;;;;;;;;;19.90;99.90;;;;;;5001799;28;19914;-80
2022/08/27 09:19:05;;;;;;;;;;;20.00;99.90;;;;;;5009065;28;19914;-81
2022/08/27 09:21:31;;;;;;;;;;;20.00;99.90;;;;;;5008930;28;19940;-80
2022/08/27 09:24:05;;;;;;;;;;;20.00;99.90;;;;;;5008554;28;20413;-80
2022/08/27 09:26:32;;;;;;;;;;;20.10;99.90;;;;;;4988685;28;19929;-80
2022/08/27 09:29:15;;;;;;;;;;;20.20;99.90;;;;;;4989249;28;19918;-79
2022/08/27 09:31:41;;;;;;;;;;;20.40;99.90;;;;;;5014901;28;19918;-79
2022/08/27 09:34:07;;;;;;;;;;;20.50;99.90;;;;;;5008531;28;20254;-82
2022/08/27 09:36:33;;;;;;;;;;;20.60;99.90;;;;;;5015059;28;19941;-82
2022/08/27 09:39:02;;;;;;;;;;;20.80;99.90;;;;;;4998092;28;19914;-81
2022/08/27 09:41:30;;;;;;;;;;;20.90;99.90;;;;;;5001736;28;19940;-80
2022/08/27 09:44:16;;;;;;;;;;;20.90;99.90;;;;;;5008966;28;19925;-80
2022/08/27 09:47:01;;;;;;;;;;;21.00;99.90;;;;;;5007806;28;19922;-79
2022/08/27 09:49:27;;;;;;;;;;;21.20;99.90;;;;;;5024787;28;19921;-79
2022/08/27 09:51:54;;;;;;;;;;;21.20;99.90;;;;;;5007952;28;20421;-83
2022/08/27 09:54:25;;;;;;;;;;;21.30;99.90;;;;;;4995918;28;19914;-81
2022/08/27 09:56:51;;;;;;;;;;;21.40;99.90;;;;;;5008010;28;20012;-79
2022/08/27 09:59:32;;;;;;;;;;;21.50;99.90;;;;;;4993612;28;20008;-80
2022/08/27 10:02:13;;;;;;;;;;;21.60;99.90;;;;;;5007719;28;19921;-79
2022/08/27 10:04:49;;;;;;;;;;;21.60;99.90;;;;;;5000955;28;19922;-79
2022/08/27 10:07:30;;;;;;;;;;;21.70;99.90;;;;;;5011460;28;19960;-80
2022/08/27 10:10:07;;;;;;;;;;;21.70;99.90;;;;;;4995200;28;20020;-80
2022/08/27 10:12:38;;;;;;;;;;;21.60;99.90;;;;;;5004165;28;19913;-82
2022/08/27 10:15:04;;;;;;;;;;;21.60;99.90;;;;;;4993479;28;19913;-79
2022/08/27 10:17:36;;;;;;;;;;;21.60;99.90;;;;;;5011566;28;19909;-80
2022/08/27 10:20:20;;;;;;;;;;;21.50;99.90;;;;;;5007807;28;19920;-79
2022/08/27 10:23:05;;;;;;;;;;;21.40;99.90;;;;;;4995402;28;19914;-80
2022/08/27 10:25:30;;;;;;;;;;;21.40;99.90;;;;;;5009947;28;19975;-82
2022/08/27 10:28:08;;;;;;;;;;;21.40;99.90;;;;;;5003486;28;20349;-79
2022/08/27 10:30:36;;;;;;;;;;;21.40;99.90;;;;;;4994498;28;19913;-80
2022/08/27 10:33:08;;;;;;;;;;;21.40;99.90;;;;;;4997905;28;20366;-79
2022/08/27 10:35:48;;;;;;;;;;;21.40;99.90;;;;;;4993379;28;19941;-79
2022/08/27 10:38:37;;;;;;;;;;;21.50;99.90;;;;;;5010695;28;20416;-82
2022/08/27 10:41:15;;;;;;;;;;;21.60;99.90;;;;;;5011173;28;19918;-79
2022/08/27 10:43:50;;;;;;;;;;;21.70;99.90;;;;;;5010239;28;19918;-81
2022/08/27 10:46:35;;;;;;;;;;;21.70;99.90;;;;;;5003435;28;19917;-80
2022/08/27 10:49:19;;;;;;;;;;;21.90;99.90;;;;;;5007400;28;19913;-80
2022/08/27 10:52:08;;;;;;;;;;;22.00;99.90;;;;;;4991476;28;19921;-80
2022/08/27 10:54:39;;;;;;;;;;;22.00;99.90;;;;;;4974505;28;19968;-80
2022/08/27 10:57:24;;;;;;;;;;;22.20;99.90;;;;;;4975416;28;19942;-79
2022/08/27 11:00:11;;;;;;;;;;;22.20;99.90;;;;;;4997405;28;19952;-81
2022/08/27 11:02:40;;;;;;;;;;;22.20;99.90;;;;;;5006875;28;20436;-79
2022/08/27 11:05:18;;;;;;;;;;;22.10;99.90;;;;;;4990357;28;20380;-81
2022/08/27 11:07:46;;;;;;;;;;;22.10;99.90;;;;;;4992055;28;19918;-79
2022/08/27 11:10:23;;;;;;;;;;;22.00;99.90;;;;;;5002400;28;20450;-81
2022/08/27 11:12:50;;;;;;;;;;;21.90;99.90;;;;;;5010570;28;19914;-81
2022/08/27 11:15:18;;;;;;;;;;;21.90;99.90;;;;;;4989657;28;20091;-81
2022/08/27 11:17:52;;;;;;;;;;;21.90;99.90;;;;;;4994682;28;19920;-80
2022/08/27 11:20:27;;;;;;;;;;;22.00;99.90;;;;;;5006492;28;19921;-81
2022/08/27 11:22:59;;;;;;;;;;;22.10;99.90;;;;;;4989709;28;19968;-80
2022/08/27 11:25:36;;;;;;;;;;;22.20;99.90;;;;;;4990790;28;20016;-80
2022/08/27 11:28:03;;;;;;;;;;;22.30;99.90;;;;;;4990007;28;19914;-80
2022/08/27 11:30:28;;;;;;;;;;;22.30;99.90;;;;;;4991122;28;19921;-80
2022/08/27 11:32:54;;;;;;;;;;;22.40;99.90;;;;;;4989581;28;19914;-81
2022/08/27 11:35:21;;;;;;;;;;;22.40;99.90;;;;;;5000017;28;19921;-80
2022/08/27 11:38:16;;;;;;;;;;;22.40;99.90;;;;;;4994569;28;19921;-80
2022/08/27 11:41:00;;;;;;;;;;;22.40;99.90;;;;;;5008067;28;19914;-80
2022/08/27 11:43:28;;;;;;;;;;;22.50;99.90;;;;;;4989039;28;19968;-81
2022/08/27 11:46:01;;;;;;;;;;;22.60;99.90;;;;;;4990249;28;19922;-80
2022/08/27 11:48:26;;;;;;;;;;;22.70;99.90;;;;;;5018902;28;19940;-80
2022/08/27 11:50:54;;;;;;;;;;;22.80;99.90;;;;;;5007367;28;20398;-81
2022/08/27 11:53:24;;;;;;;;;;;22.80;99.90;;;;;;5010158;28;19921;-81
2022/08/27 11:55:51;;;;;;;;;;;22.90;99.90;;;;;;5006109;28;20038;-81
2022/08/27 11:58:17;;;;;;;;;;;23.00;99.90;;;;;;4992250;28;19960;-80
2022/08/27 12:00:44;;;;;;;;;;;23.00;99.90;;;;;;4997440;28;20643;-80
2022/08/27 12:03:22;;;;;;;;;;;22.90;99.90;;;;;;5013722;28;19924;-80
2022/08/27 12:06:04;;;;;;;;;;;23.00;99.90;;;;;;4989950;28;19918;-80
2022/08/27 12:08:31;;;;;;;;;;;23.10;99.90;;;;;;5004350;28;20056;-80
2022/08/27 12:11:08;;;;;;;;;;;23.20;99.90;;;;;;5009660;28;20217;-80
2022/08/27 12:13:34;;;;;;;;;;;23.30;99.90;;;;;;5009654;28;20016;-79
2022/08/27 12:16:15;;;;;;;;;;;23.40;99.90;;;;;;5007051;28;19914;-79
2022/08/27 12:18:50;;;;;;;;;;;23.40;99.90;;;;;;4989332;28;20405;-80
2022/08/27 12:21:25;;;;;;;;;;;23.40;99.90;;;;;;4989050;28;20435;-79
2022/08/27 12:24:06;;;;;;;;;;;23.40;99.90;;;;;;4988895;28;19914;-79
2022/08/27 12:26:36;;;;;;;;;;;23.40;99.90;;;;;;4989713;28;20297;-79
2022/08/27 12:29:23;;;;;;;;;;;23.40;99.90;;;;;;4990299;28;20329;-79
2022/08/27 12:31:55;;;;;;;;;;;23.30;99.90;;;;;;4990230;28;20005;-79
2022/08/27 12:34:22;;;;;;;;;;;23.30;99.90;;;;;;5007927;28;19952;-79
2022/08/27 12:36:49;;;;;;;;;;;23.30;99.90;;;;;;5001117;28;19953;-79
2022/08/27 12:39:19;;;;;;;;;;;23.30;99.90;;;;;;5010161;28;19967;-79
2022/08/27 12:41:46;;;;;;;;;;;23.40;99.90;;;;;;5004835;28;20427;-79
2022/08/27 12:44:13;;;;;;;;;;;23.40;99.90;;;;;;4998145;28;20380;-79
2022/08/27 12:46:46;;;;;;;;;;;23.50;99.90;;;;;;5000167;28;19971;-79
2022/08/27 12:49:15;;;;;;;;;;;23.60;99.90;;;;;;4998708;28;19914;-79
2022/08/27 12:51:43;;;;;;;;;;;23.70;99.90;;;;;;4989894;28;19914;-79
2022/08/27 12:54:21;;;;;;;;;;;23.70;99.90;;;;;;5015456;28;20407;-79
2022/08/27 12:56:53;;;;;;;;;;;23.60;99.90;;;;;;5005460;28;19920;-79
2022/08/27 12:59:37;;;;;;;;;;;23.60;99.90;;;;;;5008329;28;19920;-79
2022/08/27 13:02:09;;;;;;;;;;;23.50;99.90;;;;;;5009221;28;19914;-79
2022/08/27 13:04:37;;;;;;;;;;;23.50;99.90;;;;;;5007045;28;19917;-79
2022/08/27 13:07:03;;;;;;;;;;;23.40;99.90;;;;;;5008102;28;20000;-79
2022/08/27 13:09:31;;;;;;;;;;;23.30;99.90;;;;;;5004722;28;20308;-79
2022/08/27 13:11:58;;;;;;;;;;;23.30;99.90;;;;;;4998788;28;19914;-79
2022/08/27 13:14:25;;;;;;;;;;;23.30;99.90;;;;;;5006007;28;20986;-79
2022/08/27 13:16:54;;;;;;;;;;;23.20;99.90;;;;;;4993604;28;19918;-79
2022/08/27 13:19:25;;;;;;;;;;;23.20;99.90;;;;;;5007617;28;20313;-79
2022/08/27 13:21:52;;;;;;;;;;;23.20;99.90;;;;;;5021583;28;19925;-79
2022/08/27 13:24:30;;;;;;;;;;;23.20;99.90;;;;;;5005765;28;19924;-79
2022/08/27 13:26:56;;;;;;;;;;;23.20;99.90;;;;;;5005019;28;19957;-79
2022/08/27 13:29:23;;;;;;;;;;;23.30;99.90;;;;;;4997321;28;19929;-79
2022/08/27 13:31:49;;;;;;;;;;;23.30;99.90;;;;;;4988191;28;19975;-79
2022/08/27 13:34:20;;;;;;;;;;;23.30;99.90;;;;;;5001569;28;20012;-79
2022/08/27 13:36:49;;;;;;;;;;;23.30;99.90;;;;;;5002325;28;19953;-78
2022/08/27 13:39:14;;;;;;;;;;;23.30;99.90;;;;;;4995951;28;19975;-79
2022/08/27 13:41:40;;;;;;;;;;;23.30;99.90;;;;;;5003368;28;19961;-78
2022/08/27 13:44:11;;;;;;;;;;;23.20;99.90;;;;;;5015231;28;19925;-78
2022/08/27 13:46:46;;;;;;;;;;;23.10;99.90;;;;;;5016640;28;19918;-79
2022/08/27 13:49:17;;;;;;;;;;;23.10;99.90;;;;;;5001335;28;20013;-79
2022/08/27 13:51:44;;;;;;;;;;;23.10;99.90;;;;;;5001715;28;19918;-79
2022/08/27 13:54:17;;;;;;;;;;;23.10;99.90;;;;;;4993998;28;19917;-78
2022/08/27 13:56:45;;;;;;;;;;;23.10;99.90;;;;;;5000640;28;19920;-79
2022/08/27 13:59:17;;;;;;;;;;;23.10;99.90;;;;;;5020873;28;19975;-79
2022/08/27 14:01:52;;;;;;;;;;;23.10;99.90;;;;;;5007067;28;20024;-79
2022/08/27 14:04:23;;;;;;;;;;;23.10;99.90;;;;;;4999889;28;20357;-79
2022/08/27 14:06:49;;;;;;;;;;;23.10;99.90;;;;;;5006882;28;19928;-78
2022/08/27 14:09:28;;;;;;;;;;;23.20;99.90;;;;;;5009347;28;19925;-78
2022/08/27 14:11:58;;;;;;;;;;;23.10;99.90;;;;;;5006233;28;19914;-78
2022/08/27 14:14:24;;;;;;;;;;;23.20;99.90;;;;;;5000429;28;19921;-79
2022/08/27 14:16:57;;;;;;;;;;;23.20;99.90;;;;;;5002794;28;19914;-79
2022/08/27 14:19:25;;;;;;;;;;;23.30;99.90;;;;;;4996226;28;19921;-79
2022/08/27 14:21:51;;;;;;;;;;;23.30;99.90;;;;;;5000386;28;19921;-79
2022/08/27 14:24:17;;;;;;;;;;;23.30;99.90;;;;;;5003362;28;19924;-78
2022/08/27 14:26:43;;;;;;;;;;;23.30;99.90;;;;;;5007309;28;19918;-78
2022/08/27 14:29:08;;;;;;;;;;;23.30;99.90;;;;;;4999709;28;19914;-79
2022/08/27 14:31:34;;;;;;;;;;;23.30;99.90;;;;;;5011051;28;19917;-79
2022/08/27 14:34:00;;;;;;;;;;;23.40;99.90;;;;;;5000717;28;19975;-79
2022/08/27 14:36:28;;;;;;;;;;;23.30;99.90;;;;;;5007382;28;19918;-79
2022/08/27 14:38:54;;;;;;;;;;;23.30;99.90;;;;;;5015608;28;20307;-79
2022/08/27 14:41:20;;;;;;;;;;;23.30;99.90;;;;;;5014704;28;19917;-79
2022/08/27 14:43:46;;;;;;;;;;;23.30;99.90;;;;;;5002285;28;19924;-79
2022/08/27 14:46:18;;;;;;;;;;;23.30;99.90;;;;;;5004856;28;19917;-79
2022/08/27 14:48:44;;;;;;;;;;;23.30;99.90;;;;;;5009788;28;20741;-79
2022/08/27 14:51:15;;;;;;;;;;;23.40;99.90;;;;;;5009773;28;20003;-79
2022/08/27 14:53:42;;;;;;;;;;;23.40;99.90;;;;;;5018025;28;19913;-79
2022/08/27 14:56:07;;;;;;;;;;;23.40;99.90;;;;;;5001205;28;19917;-80
2022/08/27 14:58:33;;;;;;;;;;;23.40;99.90;;;;;;4996954;28;19993;-79
2022/08/27 15:00:59;;;;;;;;;;;23.40;99.90;;;;;;5006764;28;19921;-79
2022/08/27 15:03:25;;;;;;;;;;;23.40;99.90;;;;;;5006842;28;20297;-80
2022/08/27 15:05:54;;;;;;;;;;;23.40;99.90;;;;;;5010309;28;19925;-79
2022/08/27 15:08:20;;;;;;;;;;;23.40;99.90;;;;;;5008727;28;20022;-79
2022/08/27 15:10:46;;;;;;;;;;;23.30;99.90;;;;;;5018649;28;19922;-79
2022/08/27 15:13:12;;;;;;;;;;;23.20;99.90;;;;;;5006930;28;19921;-79
2022/08/27 15:15:38;;;;;;;;;;;23.20;99.90;;;;;;5002789;28;19973;-80
2022/08/27 15:18:04;;;;;;;;;;;23.20;99.90;;;;;;4997045;28;19928;-79